createdAt,value
2018-02-20T00:01:02.965Z,86.01
2018-02-20T00:03:30.414Z,86.30
2018-02-20T00:05:58.124Z,86.56
2018-02-20T00:08:25.705Z,86.56
2018-02-20T00:10:53.156Z,86.28
2018-02-20T00:13:20.628Z,86.09
2018-02-20T00:15:48.081Z,85.55
2018-02-20T00:18:16.765Z,85.72
2018-02-20T00:20:44.224Z,86.02
2018-02-20T00:23:11.697Z,86.35
2018-02-20T00:25:39.183Z,86.54
2018-02-20T00:28:06.640Z,86.01
2018-02-20T00:30:34.152Z,85.79
2018-02-20T00:33:01.622Z,85.87
2018-02-20T00:35:29.081Z,85.74
2018-02-20T00:37:56.563Z,85.71
2018-02-20T00:40:24.017Z,84.91
2018-02-20T00:42:51.721Z,84.87
2018-02-20T00:45:19.197Z,85.65
2018-02-20T00:47:46.705Z,86.53
2018-02-20T00:50:14.174Z,86.49
2018-02-20T00:52:41.629Z,85.77
2018-02-20T00:55:09.202Z,86.25
2018-02-20T00:57:36.668Z,85.84
2018-02-20T01:00:04.140Z,86.49
2018-02-20T01:02:31.618Z,86.06
2018-02-20T01:04:59.086Z,85.35
2018-02-20T01:07:26.681Z,85.57
2018-02-20T01:09:54.150Z,86.39
2018-02-20T01:12:21.614Z,85.60
2018-02-20T01:14:49.118Z,85.38
2018-02-20T01:17:16.576Z,85.45
2018-02-20T01:19:44.141Z,85.13
2018-02-20T01:22:11.613Z,85.77
2018-02-20T01:24:39.069Z,85.37
2018-02-20T01:27:06.540Z,85.70
2018-02-20T01:29:33.993Z,85.83
2018-02-20T01:32:01.573Z,85.26
2018-02-20T01:34:29.029Z,85.66
2018-02-20T01:36:56.497Z,85.28
2018-02-20T01:39:24.069Z,85.51
2018-02-20T01:41:51.517Z,85.64
2018-02-20T01:44:19.021Z,85.49
2018-02-20T01:46:46.481Z,85.52
2018-02-20T01:49:13.930Z,85.58
2018-02-20T01:51:41.417Z,85.82
2018-02-20T01:54:08.877Z,84.73
2018-02-20T01:56:36.353Z,84.97
2018-02-20T01:59:03.805Z,85.36
2018-02-20T02:01:31.256Z,85.24
2018-02-20T02:03:58.776Z,85.65
2018-02-20T02:06:26.308Z,85.50
2018-02-20T02:08:54.087Z,85.33
2018-02-20T02:11:21.542Z,85.16
2018-02-20T02:13:48.993Z,85.54
2018-02-20T02:16:16.997Z,85.88
2018-02-20T02:18:44.447Z,85.76
2018-02-20T02:21:11.937Z,86.04
2018-02-20T02:23:39.392Z,85.49
2018-02-20T02:26:06.841Z,85.44
2018-02-20T02:28:34.333Z,85.67
2018-02-20T02:31:01.800Z,86.09
2018-02-20T02:33:29.481Z,86.09
2018-02-20T02:35:56.945Z,86.54
2018-02-20T02:38:24.406Z,86.61
2018-02-20T02:40:51.880Z,86.46
2018-02-20T02:43:19.334Z,87.11
2018-02-20T02:45:46.984Z,88.55
2018-02-20T02:48:14.457Z,87.99
2018-02-20T02:50:41.912Z,87.25
2018-02-20T02:53:09.393Z,87.31
2018-02-20T02:55:36.845Z,87.55
2018-02-20T02:58:04.571Z,87.00
2018-02-20T03:00:32.125Z,86.45
2018-02-20T03:02:59.753Z,86.35
2018-02-20T03:05:27.231Z,86.30
2018-02-20T03:07:54.692Z,85.08
2018-02-20T03:10:22.425Z,85.86
2018-02-20T03:12:49.930Z,86.16
2018-02-20T03:15:17.381Z,86.52
2018-02-20T03:17:44.870Z,86.13
2018-02-20T03:20:12.329Z,87.01
2018-02-20T03:22:39.981Z,86.79
2018-02-20T03:25:07.453Z,86.81
2018-02-20T03:27:34.906Z,86.39
2018-02-20T03:30:02.399Z,86.60
2018-02-20T03:32:29.854Z,86.38
2018-02-20T03:34:57.326Z,86.60
2018-02-20T03:37:24.787Z,87.09
2018-02-20T03:39:52.239Z,86.72
2018-02-20T03:42:19.737Z,86.52
2018-02-20T03:44:47.200Z,86.42
2018-02-20T03:47:14.704Z,86.26
2018-02-20T03:49:42.268Z,85.66
2018-02-20T03:52:09.801Z,86.11
2018-02-20T03:54:37.284Z,85.87
2018-02-20T03:57:04.737Z,85.88
2018-02-20T03:59:32.340Z,86.63
2018-02-20T04:02:00.047Z,86.64
2018-02-20T04:04:27.509Z,86.17
2018-02-20T04:06:55.014Z,86.48
2018-02-20T04:09:22.477Z,86.42
2018-02-20T04:11:49.965Z,86.88
2018-02-20T04:14:17.452Z,87.44
2018-02-20T04:16:44.907Z,86.87
2018-02-20T04:19:12.381Z,87.52
2018-02-20T04:21:39.833Z,85.64
2018-02-20T04:24:07.441Z,86.46
2018-02-20T04:26:34.897Z,85.79
2018-02-20T04:29:02.357Z,86.49
2018-02-20T04:31:29.844Z,86.51
2018-02-20T04:33:57.320Z,86.17
2018-02-20T04:36:24.988Z,85.95
2018-02-20T04:38:52.445Z,85.51
2018-02-20T04:41:19.910Z,84.87
2018-02-20T04:43:47.393Z,85.39
2018-02-20T04:46:14.849Z,85.25
2018-02-20T04:48:42.780Z,85.42
2018-02-20T04:51:10.277Z,85.07
2018-02-20T04:53:37.726Z,84.64
2018-02-20T04:56:05.218Z,84.58
2018-02-20T04:58:32.673Z,84.55
2018-02-20T05:01:00.628Z,83.94
2018-02-20T05:03:28.089Z,85.29
2018-02-20T05:05:55.541Z,85.28
2018-02-20T05:08:23.017Z,85.47
2018-02-20T05:10:50.473Z,85.41
2018-02-20T05:13:18.057Z,85.67
2018-02-20T05:15:45.545Z,85.16
2018-02-20T05:18:13.002Z,85.20
2018-02-20T05:20:40.493Z,85.14
2018-02-20T05:23:07.962Z,85.42
2018-02-20T05:25:35.444Z,84.71
2018-02-20T05:28:02.901Z,84.78
2018-02-20T05:30:30.401Z,84.81
2018-02-20T05:32:57.881Z,84.62
2018-02-20T05:35:25.355Z,84.52
2018-02-20T05:37:52.957Z,84.60
2018-02-20T05:40:20.432Z,84.17
2018-02-20T05:42:47.929Z,84.68
2018-02-20T05:45:15.400Z,84.92
2018-02-20T05:47:43.065Z,85.10
2018-02-20T05:50:10.943Z,84.17
2018-02-20T05:52:38.393Z,84.63
2018-02-20T05:55:05.878Z,84.65
2018-02-20T05:57:33.388Z,84.45
2018-02-20T06:00:01.216Z,84.68
2018-02-20T06:02:28.901Z,84.54
2018-02-20T06:04:56.353Z,84.49
2018-02-20T06:07:23.814Z,84.45
2018-02-20T06:09:51.289Z,83.81
2018-02-20T06:12:18.737Z,83.90
2018-02-20T06:14:46.338Z,84.75
2018-02-20T06:17:13.795Z,84.36
2018-02-20T06:19:41.254Z,84.45
2018-02-20T06:22:08.725Z,84.41
2018-02-20T06:24:36.181Z,84.92
2018-02-20T06:27:04.001Z,84.83
2018-02-20T06:29:31.485Z,84.95
2018-02-20T06:31:58.937Z,85.18
2018-02-20T06:34:26.602Z,84.89
2018-02-20T06:36:54.121Z,85.64
2018-02-20T06:39:21.753Z,85.20
2018-02-20T06:41:49.202Z,85.24
2018-02-20T06:44:16.660Z,85.83
2018-02-20T06:46:44.450Z,85.75
2018-02-20T06:49:11.913Z,84.98
2018-02-20T06:51:39.604Z,85.73
2018-02-20T06:54:07.058Z,85.76
2018-02-20T06:56:34.584Z,85.79
2018-02-20T06:59:02.017Z,85.96
2018-02-20T07:01:29.474Z,85.42
2018-02-20T07:03:57.058Z,86.12
2018-02-20T07:06:24.581Z,86.54
2018-02-20T07:08:52.038Z,86.33
2018-02-20T07:11:19.577Z,86.63
2018-02-20T07:13:47.037Z,87.16
2018-02-20T07:16:14.521Z,87.19
2018-02-20T07:18:41.994Z,87.18
2018-02-20T07:21:09.441Z,87.02
2018-02-20T07:23:36.916Z,86.96
2018-02-20T07:26:04.397Z,86.98
2018-02-20T07:28:31.930Z,87.18
2018-02-20T07:30:59.394Z,87.62
2018-02-20T07:33:27.345Z,87.85
2018-02-20T07:35:55.221Z,87.15
2018-02-20T07:38:22.677Z,86.07
2018-02-20T07:40:50.331Z,86.60
2018-02-20T07:43:17.808Z,86.85
2018-02-20T07:45:45.274Z,86.92
2018-02-20T07:48:12.773Z,87.29
2018-02-20T07:50:40.260Z,87.19
2018-02-20T07:53:07.977Z,87.82
2018-02-20T07:55:35.440Z,87.62
2018-02-20T07:58:02.895Z,87.85
2018-02-20T08:00:30.380Z,87.66
2018-02-20T08:02:57.853Z,87.83
2018-02-20T08:05:25.353Z,87.65
2018-02-20T08:07:52.832Z,87.47
2018-02-20T08:10:20.291Z,87.36
2018-02-20T08:12:47.797Z,88.04
2018-02-20T08:15:15.292Z,88.08
2018-02-20T08:17:42.765Z,88.10
2018-02-20T08:20:10.651Z,88.13
2018-02-20T08:22:38.179Z,87.53
2018-02-20T08:25:05.683Z,87.75
2018-02-20T08:27:33.191Z,88.43
2018-02-20T08:30:00.722Z,88.40
2018-02-20T08:32:28.189Z,88.42
2018-02-20T08:34:55.668Z,88.06
2018-02-20T08:37:23.137Z,87.83
2018-02-20T08:39:50.619Z,87.23
2018-02-20T08:42:18.127Z,87.52
2018-02-20T08:44:45.601Z,86.95
2018-02-20T08:47:13.053Z,87.21
2018-02-20T08:49:40.544Z,86.92
2018-02-20T08:52:07.997Z,86.08
2018-02-20T08:54:35.660Z,85.05
2018-02-20T08:57:03.136Z,83.67
2018-02-20T08:59:30.770Z,83.85
2018-02-20T09:01:58.304Z,83.54
2018-02-20T09:04:25.760Z,83.37
2018-02-20T09:06:53.245Z,83.06
2018-02-20T09:09:20.740Z,81.62
2018-02-20T09:11:48.202Z,80.24
2018-02-20T09:14:15.688Z,80.52
2018-02-20T09:16:43.168Z,79.67
2018-02-20T09:19:10.837Z,79.93
2018-02-20T09:21:38.313Z,80.37
2018-02-20T09:24:05.765Z,79.97
2018-02-20T09:26:33.236Z,80.40
2018-02-20T09:29:00.732Z,79.27
2018-02-20T09:31:28.221Z,78.96
2018-02-20T09:33:55.677Z,79.39
2018-02-20T09:36:23.146Z,80.52
2018-02-20T09:38:50.650Z,79.20
2018-02-20T09:41:18.125Z,78.37
2018-02-20T09:43:45.599Z,76.92
2018-02-20T09:46:13.054Z,75.58
2018-02-20T09:48:40.507Z,76.09
2018-02-20T09:51:07.980Z,75.25
2018-02-20T09:53:35.473Z,76.33
2018-02-20T09:56:03.197Z,75.83
2018-02-20T09:58:30.647Z,74.51
2018-02-20T10:00:58.103Z,75.45
2018-02-20T10:03:25.605Z,73.75
2018-02-20T10:05:53.182Z,73.72
2018-02-20T10:08:20.681Z,74.17
2018-02-20T10:10:48.129Z,75.03
2018-02-20T10:13:15.614Z,72.90
2018-02-20T10:15:43.114Z,75.46
2018-02-20T10:18:10.617Z,73.73
2018-02-20T10:20:38.126Z,74.61
2018-02-20T10:23:05.654Z,75.30
2018-02-20T10:25:33.121Z,74.48
2018-02-20T10:28:00.593Z,74.90
2018-02-20T10:30:28.050Z,73.43
2018-02-20T10:32:55.547Z,74.31
2018-02-20T10:35:23.020Z,75.09
2018-02-20T10:37:50.473Z,74.28
2018-02-20T10:40:17.960Z,74.62
2018-02-20T10:42:45.429Z,73.29
2018-02-20T10:45:13.313Z,71.55
2018-02-20T10:47:40.765Z,72.20
2018-02-20T10:50:08.236Z,72.40
2018-02-20T10:52:35.986Z,72.18
2018-02-20T10:55:03.462Z,73.18
2018-02-20T10:57:31.268Z,72.52
2018-02-20T10:59:58.726Z,71.62
2018-02-20T11:02:26.177Z,70.44
2018-02-20T11:04:53.654Z,69.58
2018-02-20T11:07:21.103Z,67.62
2018-02-20T11:09:48.737Z,66.96
2018-02-20T11:12:16.207Z,68.02
2018-02-20T11:14:43.679Z,68.74
2018-02-20T11:17:11.577Z,68.90
2018-02-20T11:19:39.065Z,66.35
2018-02-20T11:22:06.551Z,67.12
2018-02-20T11:24:34.003Z,68.06
2018-02-20T11:27:01.452Z,67.06
2018-02-20T11:29:28.947Z,67.00
2018-02-20T11:31:56.405Z,67.20
2018-02-20T11:34:23.943Z,67.75
2018-02-20T11:36:51.393Z,68.11
2018-02-20T11:39:18.841Z,68.55
2018-02-20T11:41:46.314Z,68.37
2018-02-20T11:46:40.592Z,67.20
2018-02-20T11:49:08.094Z,67.05
2018-02-20T11:51:35.680Z,66.99
2018-02-20T11:54:03.889Z,66.02
2018-02-20T11:56:31.341Z,66.31
2018-02-20T11:58:59.025Z,66.27
2018-02-20T12:01:26.491Z,65.39
2018-02-20T12:03:53.938Z,65.59
2018-02-20T12:06:21.413Z,65.96
2018-02-20T12:08:48.865Z,65.39
2018-02-20T12:11:16.418Z,65.71
2018-02-20T12:13:43.906Z,66.12
2018-02-20T12:16:11.369Z,65.84
2018-02-20T12:18:38.842Z,65.12
2018-02-20T12:21:06.302Z,64.67
2018-02-20T12:23:34.091Z,64.95
2018-02-20T12:26:01.633Z,64.21
2018-02-20T12:28:29.110Z,64.83
2018-02-20T12:30:56.609Z,64.96
2018-02-20T12:33:24.054Z,64.36
2018-02-20T12:35:51.713Z,64.23
2018-02-20T12:38:19.168Z,63.59
2018-02-20T12:40:46.637Z,63.08
2018-02-20T12:43:14.145Z,62.93
2018-02-20T12:45:41.593Z,63.17
2018-02-20T12:48:09.100Z,63.90
2018-02-20T12:50:37.781Z,64.04
2018-02-20T12:53:05.233Z,64.77
2018-02-20T12:55:32.705Z,64.07
2018-02-20T12:58:00.165Z,64.08
2018-02-20T13:00:27.947Z,64.62
2018-02-20T13:02:55.649Z,63.84
2018-02-20T13:05:23.101Z,63.23
2018-02-20T13:07:50.592Z,63.08
2018-02-20T13:10:18.061Z,63.50
2018-02-20T13:12:45.781Z,62.56
2018-02-20T13:15:13.239Z,62.35
2018-02-20T13:17:40.709Z,62.96
2018-02-20T13:20:08.329Z,62.98
2018-02-20T13:22:35.781Z,62.21
2018-02-20T13:25:03.467Z,62.78
2018-02-20T13:27:30.950Z,62.73
2018-02-20T13:29:58.396Z,62.60
2018-02-20T13:32:25.880Z,62.86
2018-02-20T13:34:53.348Z,63.01
2018-02-20T13:37:21.808Z,62.29
2018-02-20T13:39:49.358Z,62.21
2018-02-20T13:42:16.809Z,62.83
2018-02-20T13:44:44.282Z,63.40
2018-02-20T13:47:11.730Z,63.62
2018-02-20T13:49:39.519Z,62.77
2018-02-20T13:52:07.013Z,62.90
2018-02-20T13:54:34.465Z,62.19
2018-02-20T13:57:01.936Z,61.40
2018-02-20T13:59:29.381Z,59.69
2018-02-20T14:01:56.857Z,60.32
2018-02-20T14:04:24.309Z,59.96
2018-02-20T14:06:51.754Z,59.21
2018-02-20T14:09:19.248Z,59.97
2018-02-20T14:11:46.693Z,59.42
2018-02-20T14:14:14.292Z,59.17
2018-02-20T14:16:41.736Z,57.84
2018-02-20T14:19:09.219Z,58.49
2018-02-20T14:21:36.693Z,58.90
2018-02-20T14:24:04.161Z,59.83
2018-02-20T14:26:31.809Z,59.98
2018-02-20T14:28:59.269Z,59.93
2018-02-20T14:31:26.749Z,58.60
2018-02-20T14:33:54.222Z,60.96
2018-02-20T14:36:21.717Z,62.54
2018-02-20T14:38:49.369Z,62.16
2018-02-20T14:41:16.836Z,62.63
2018-02-20T14:43:44.352Z,62.85
2018-02-20T14:46:11.821Z,62.97
2018-02-20T14:48:39.374Z,63.06
2018-02-20T14:51:06.845Z,62.09
2018-02-20T14:53:34.292Z,61.54
2018-02-20T14:56:01.824Z,61.03
2018-02-20T14:58:29.302Z,61.11
2018-02-20T15:00:57.655Z,59.81
2018-02-20T15:03:25.350Z,60.78
2018-02-20T15:05:52.820Z,60.12
2018-02-20T15:08:20.321Z,60.96
2018-02-20T15:10:47.774Z,61.60
2018-02-20T15:13:15.248Z,61.21
2018-02-20T15:15:43.060Z,61.50
2018-02-20T15:18:10.513Z,61.20
2018-02-20T15:20:37.973Z,61.41
2018-02-20T15:23:05.449Z,61.50
2018-02-20T15:25:32.914Z,62.45
2018-02-20T15:28:00.401Z,63.10
2018-02-20T15:30:27.854Z,62.66
2018-02-20T15:32:55.330Z,62.42
2018-02-20T15:35:22.802Z,61.96
2018-02-20T15:37:50.265Z,62.88
2018-02-20T15:40:17.945Z,63.53
2018-02-20T15:42:45.409Z,63.59
2018-02-20T15:45:12.866Z,63.13
2018-02-20T15:47:41.022Z,63.97
2018-02-20T15:50:08.530Z,63.99
2018-02-20T15:52:36.026Z,64.80
2018-02-20T15:55:03.477Z,64.92
2018-02-20T15:57:30.998Z,64.42
2018-02-20T15:59:58.601Z,64.46
2018-02-20T16:02:26.056Z,65.53
2018-02-20T16:04:53.597Z,66.18
2018-02-20T16:07:21.060Z,66.42
2018-02-20T16:09:48.506Z,66.99
2018-02-20T16:12:16.322Z,68.09
2018-02-20T16:14:43.781Z,68.70
2018-02-20T16:17:11.406Z,69.26
2018-02-20T16:19:38.878Z,69.55
2018-02-20T16:22:06.330Z,69.10
2018-02-20T16:24:33.797Z,68.74
2018-02-20T16:27:01.251Z,69.33
2018-02-20T16:29:28.730Z,69.64
2018-02-20T16:31:56.292Z,69.46
2018-02-20T16:34:23.745Z,68.60
2018-02-20T16:36:51.237Z,68.45
2018-02-20T16:39:18.721Z,69.38
2018-02-20T16:41:46.207Z,69.21
2018-02-20T16:44:13.665Z,69.17
2018-02-20T16:46:41.117Z,69.19
2018-02-20T16:49:08.666Z,69.55
2018-02-20T16:51:36.133Z,69.89
2018-02-20T16:54:04.685Z,70.15
2018-02-20T16:56:32.129Z,70.49
2018-02-20T16:59:00.157Z,70.36
2018-02-20T17:01:27.625Z,70.62
2018-02-20T17:03:55.081Z,71.36
2018-02-20T17:06:22.814Z,72.20
2018-02-20T17:08:50.281Z,72.02
2018-02-20T17:11:18.537Z,72.48
2018-02-20T17:13:46.005Z,72.46
2018-02-20T17:16:13.528Z,72.88
2018-02-20T17:18:41.013Z,73.19
2018-02-20T17:21:08.475Z,72.98
2018-02-20T17:23:35.953Z,73.59
2018-02-20T17:26:03.430Z,74.04
2018-02-20T17:28:30.877Z,74.35
2018-02-20T17:30:58.351Z,74.29
2018-02-20T17:33:25.808Z,74.30
2018-02-20T17:35:53.273Z,74.55
2018-02-20T17:38:20.834Z,75.10
2018-02-20T17:40:48.316Z,75.28
2018-02-20T17:43:16.026Z,75.22
2018-02-20T17:45:43.571Z,75.32
2018-02-20T17:48:11.029Z,75.74
2018-02-20T17:50:38.505Z,75.85
2018-02-20T17:53:06.094Z,75.95
2018-02-20T17:55:33.561Z,75.90
2018-02-20T17:58:01.281Z,76.25
2018-02-20T18:00:28.733Z,76.17
2018-02-20T18:02:56.201Z,75.90
2018-02-20T18:05:23.965Z,75.45
2018-02-20T18:07:51.414Z,75.67
2018-02-20T18:10:18.897Z,75.66
2018-02-20T18:12:46.426Z,75.28
2018-02-20T18:15:13.944Z,73.64
2018-02-20T18:17:41.428Z,74.35
2018-02-20T18:20:08.886Z,75.13
2018-02-20T18:22:36.528Z,75.00
2018-02-20T18:25:04.121Z,74.20
2018-02-20T18:27:31.862Z,74.55
2018-02-20T18:29:59.346Z,74.58
2018-02-20T18:32:26.794Z,75.46
2018-02-20T18:34:54.358Z,75.65
2018-02-20T18:37:21.829Z,75.91
2018-02-20T18:39:49.464Z,76.36
2018-02-20T18:42:16.945Z,76.50
2018-02-20T18:44:44.397Z,76.84
2018-02-20T18:47:11.910Z,77.13
2018-02-20T18:49:39.362Z,77.29
2018-02-20T18:52:06.863Z,77.36
2018-02-20T18:54:34.321Z,77.95
2018-02-20T18:57:01.989Z,78.05
2018-02-20T18:59:29.477Z,78.48
2018-02-20T19:01:56.925Z,77.69
2018-02-20T19:04:24.399Z,77.13
2018-02-20T19:06:51.864Z,77.41
2018-02-20T19:09:19.346Z,77.67
2018-02-20T19:11:46.807Z,76.50
2018-02-20T19:14:14.278Z,76.20
2018-02-20T19:16:41.773Z,76.78
2018-02-20T19:19:09.227Z,76.73
2018-02-20T19:21:36.976Z,76.55
2018-02-20T19:24:04.437Z,76.20
2018-02-20T19:26:31.911Z,75.89
2018-02-20T19:28:59.377Z,76.23
2018-02-20T19:31:26.827Z,75.89
2018-02-20T19:33:54.696Z,76.13
2018-02-20T19:36:22.237Z,77.10
2018-02-20T19:38:49.685Z,77.62
2018-02-20T19:41:17.153Z,78.63
2018-02-20T19:43:44.609Z,78.80
2018-02-20T19:46:12.472Z,78.46
2018-02-20T19:48:39.974Z,78.98
2018-02-20T19:51:07.447Z,79.59
2018-02-20T19:53:34.954Z,80.14
2018-02-20T19:56:02.511Z,80.12
2018-02-20T19:58:30.544Z,80.14
2018-02-20T20:00:57.989Z,79.76
2018-02-20T20:03:25.459Z,79.57
2018-02-20T20:05:52.931Z,80.08
2018-02-20T20:08:20.389Z,80.54
2018-02-20T20:10:48.009Z,80.73
2018-02-20T20:13:15.488Z,80.75
2018-02-20T20:15:43.205Z,80.72
2018-02-20T20:18:10.693Z,81.73
2018-02-20T20:20:38.385Z,81.25
2018-02-20T20:23:06.057Z,81.33
2018-02-20T20:25:33.513Z,81.75
2018-02-20T20:28:01.333Z,80.85
2018-02-20T20:30:28.805Z,80.47
2018-02-20T20:32:56.255Z,79.77
2018-02-20T20:35:23.800Z,79.58
2018-02-20T20:37:51.252Z,79.36
2018-02-20T20:40:18.726Z,79.41
2018-02-20T20:42:46.209Z,79.21
2018-02-20T20:45:14.198Z,80.18
2018-02-20T20:47:41.998Z,79.93
2018-02-20T20:50:09.449Z,79.93
2018-02-20T20:52:37.109Z,79.97
2018-02-20T20:55:04.583Z,80.18
2018-02-20T20:57:32.155Z,80.02
2018-02-20T20:59:59.674Z,79.73
2018-02-20T21:02:27.149Z,77.49
2018-02-20T21:04:54.647Z,78.54
2018-02-20T21:07:22.110Z,78.16
2018-02-20T21:09:49.565Z,76.85
2018-02-20T21:12:18.011Z,76.42
2018-02-20T21:14:45.461Z,76.28
2018-02-20T21:17:12.909Z,77.13
2018-02-20T21:19:40.373Z,75.52
2018-02-20T21:22:07.834Z,75.62
2018-02-20T21:24:35.333Z,76.08
2018-02-20T21:27:02.802Z,75.85
2018-02-20T21:29:30.401Z,75.72
2018-02-20T21:31:57.902Z,76.01
2018-02-20T21:34:25.349Z,75.57
2018-02-20T21:36:52.999Z,75.80
2018-02-20T21:39:20.713Z,75.70
2018-02-20T21:41:48.180Z,75.76
2018-02-20T21:44:15.916Z,73.59
2018-02-20T21:46:43.418Z,72.56
2018-02-20T21:49:10.917Z,70.85
2018-02-20T21:51:38.369Z,69.89
2018-02-20T21:54:05.819Z,69.74
2018-02-20T21:56:33.401Z,70.16
2018-02-20T21:59:00.905Z,69.39
2018-02-20T22:01:28.494Z,69.59
2018-02-20T22:03:56.061Z,69.54
2018-02-20T22:06:23.514Z,69.49
2018-02-20T22:08:51.012Z,69.01
2018-02-20T22:11:18.481Z,68.91
2018-02-20T22:13:45.982Z,68.70
2018-02-20T22:16:13.423Z,68.45
2018-02-20T22:18:40.968Z,68.64
2018-02-20T22:21:08.438Z,67.67
2018-02-20T22:23:35.908Z,68.01
2018-02-20T22:26:03.395Z,67.89
2018-02-20T22:28:30.879Z,68.39
2018-02-20T22:30:58.352Z,69.45
2018-02-20T22:33:25.818Z,70.00
2018-02-20T22:35:53.264Z,70.36
2018-02-20T22:38:21.077Z,70.68
2018-02-20T22:40:48.546Z,70.13
2018-02-20T22:43:16.586Z,69.74
2018-02-20T22:45:44.099Z,68.59
2018-02-20T22:48:11.549Z,68.84
2018-02-20T22:50:39.022Z,69.04
2018-02-20T22:53:06.481Z,69.56
2018-02-20T22:55:34.187Z,69.99
2018-02-20T22:58:01.654Z,70.11
2018-02-20T23:00:29.117Z,69.54
2018-02-20T23:02:56.624Z,69.63
2018-02-20T23:05:24.068Z,69.49
2018-02-20T23:07:51.568Z,69.54
2018-02-20T23:10:19.022Z,69.44
2018-02-20T23:12:46.477Z,69.31
2018-02-20T23:15:13.974Z,69.31
2018-02-20T23:17:41.417Z,69.49
2018-02-20T23:20:08.893Z,68.97
2018-02-20T23:22:36.340Z,69.23
2018-02-20T23:25:03.797Z,69.70
2018-02-20T23:27:31.297Z,69.17
2018-02-20T23:29:58.741Z,69.49
2018-02-20T23:32:26.506Z,69.71
2018-02-20T23:34:53.961Z,69.93
2018-02-20T23:37:21.420Z,68.42
2018-02-20T23:39:48.884Z,69.39
2018-02-20T23:42:16.738Z,70.32
2018-02-20T23:44:44.602Z,70.12
2018-02-20T23:47:12.050Z,69.64
2018-02-20T23:49:39.502Z,69.05
2018-02-20T23:52:06.973Z,69.11
2018-02-20T23:54:34.421Z,69.21
2018-02-20T23:57:01.912Z,69.27
2018-02-20T23:59:29.357Z,69.79
